Nearby METAR Reports

 

NZWN - Wellington Intl, New Zealand
Distance from station: E 68km
Updated: 19/12/2018 01:30
Few Clouds
Few Clouds
 Wind from NNE
Wind: NNE 30 km/h
Temperature: 18°C
Dew Point: 14°C
Humidity: 78%
Barometer: 1006 hPa
Clouds: Few Clouds
Visibility: 10 km
Cloud details: Few Clouds 732 m
2018/12/18 12:30 NZWN 181230Z AUTO 03016KT 9999 FEW024/// 18/14 Q1006 NOSIG
NZCH - Christchurch Int, New Zealand
Distance from station: SSW 269km
Updated: 19/12/2018 01:30
Light rain, Few clouds
Light rain, Few clouds
 Wind from SW
Wind: SW 15 km/h
Temperature: 15°C
Dew Point: 14°C
Humidity: 94%
Barometer: 1005 hPa
Summary: Light rain
Clouds: Few Clouds
Visibility: 10 km
Cloud details: Few Clouds 427 m
2018/12/18 12:30 NZCH 181230Z AUTO 23008KT 9999 -RA FEW014/// 15/14 Q1005 BECMG BKN012
 
NZAA - Auckland Intl Ar, New Zealand
Distance from station: N 480km
Updated: 19/12/2018 01:30
Clear
Clear
 Wind from WSW
Wind: WSW 19 km/h
Temperature: 19°C
Dew Point: 16°C
Humidity: 83%
Barometer: 1012 hPa
Clouds: Clear
Visibility: 10 km
2018/12/18 12:30 NZAA 181230Z AUTO 24010KT 9999 NCD 19/16 Q1012 NOSIG